createdAt,value
2018-02-20T00:00:25.618Z,41.28
2018-02-20T00:06:27.896Z,40.10
2018-02-20T00:09:06.665Z,37.10
2018-02-20T00:11:43.414Z,36.00
2018-02-20T00:14:13.455Z,37.60
2018-02-20T00:16:42.960Z,40.10
2018-02-20T00:19:12.400Z,36.70
2018-02-20T00:21:41.902Z,39.42
2018-02-20T00:24:11.708Z,33.63
2018-02-20T00:26:41.343Z,38.97
2018-02-20T00:29:11.832Z,43.65
2018-02-20T00:31:42.418Z,40.60
2018-02-20T00:34:12.162Z,41.17
2018-02-20T00:36:41.650Z,41.72
2018-02-20T00:39:11.354Z,43.28
2018-02-20T00:41:41.234Z,39.58
2018-02-20T00:44:10.907Z,49.85
2018-02-20T00:46:42.678Z,38.97
2018-02-20T00:49:12.370Z,44.28
2018-02-20T00:51:42.897Z,40.65
2018-02-20T00:54:12.403Z,37.80
2018-02-20T00:56:42.102Z,41.63
2018-02-20T00:59:11.812Z,39.60
2018-02-20T01:01:41.666Z,40.80
2018-02-20T01:04:11.774Z,35.90
2018-02-20T01:06:41.303Z,43.00
2018-02-20T01:09:11.158Z,43.55
2018-02-20T01:11:41.311Z,43.25
2018-02-20T01:14:10.663Z,40.42
2018-02-20T01:16:39.808Z,42.88
2018-02-20T01:19:08.847Z,40.20
2018-02-20T01:21:44.408Z,40.35
2018-02-20T01:24:13.899Z,38.90
2018-02-20T01:26:43.414Z,36.65
2018-02-20T01:29:13.829Z,38.47
2018-02-20T01:31:43.212Z,40.28
2018-02-20T01:34:12.439Z,42.10
2018-02-20T01:36:42.171Z,39.25
2018-02-20T01:39:13.225Z,38.80
2018-02-20T01:41:43.138Z,38.05
2018-02-20T01:44:12.794Z,43.22
2018-02-20T01:46:42.735Z,37.22
2018-02-20T01:49:12.984Z,44.25
2018-02-20T01:51:43.104Z,41.20
2018-02-20T01:54:12.914Z,43.83
2018-02-20T01:56:42.608Z,46.53
2018-02-20T01:59:12.429Z,44.70
2018-02-20T02:01:41.858Z,38.75
2018-02-20T02:04:12.876Z,44.08
2018-02-20T02:06:45.218Z,41.88
2018-02-20T02:09:15.117Z,41.85
2018-02-20T02:11:45.501Z,40.22
2018-02-20T02:14:15.224Z,41.22
2018-02-20T02:16:45.721Z,42.97
2018-02-20T02:19:15.523Z,41.47
2018-02-20T02:21:45.152Z,43.95
2018-02-20T02:24:15.571Z,42.97
2018-02-20T02:26:44.928Z,41.97
2018-02-20T02:29:17.944Z,42.17
2018-02-20T02:31:47.335Z,40.85
2018-02-20T02:34:16.678Z,42.17
2018-02-20T02:36:46.082Z,38.90
2018-02-20T02:39:15.397Z,45.05
2018-02-20T02:41:45.862Z,45.12
2018-02-20T02:44:15.259Z,42.60
2018-02-20T02:46:44.309Z,42.58
2018-02-20T02:49:13.442Z,45.33
2018-02-20T02:51:43.864Z,45.95
2018-02-20T02:54:14.238Z,42.42
2018-02-20T02:56:43.742Z,45.65
2018-02-20T02:59:13.482Z,47.55
2018-02-20T03:01:43.068Z,108.20
2018-02-20T03:04:12.876Z,103.12
2018-02-20T03:06:42.866Z,75.78
2018-02-20T03:09:13.280Z,50.80
2018-02-20T03:11:42.882Z,39.75
2018-02-20T03:14:12.526Z,42.47
2018-02-20T03:16:42.605Z,39.95
2018-02-20T03:19:12.741Z,38.97
2018-02-20T03:21:42.380Z,51.70
2018-02-20T03:24:12.891Z,44.70
2018-02-20T03:26:43.078Z,46.13
2018-02-20T03:29:12.944Z,39.30
2018-02-20T03:31:42.007Z,51.08
2018-02-20T03:34:11.096Z,45.70
2018-02-20T03:36:46.526Z,46.10
2018-02-20T03:39:17.459Z,47.13
2018-02-20T03:41:47.131Z,45.20
2018-02-20T03:44:16.999Z,43.17
2018-02-20T03:46:46.714Z,46.13
2018-02-20T03:49:16.428Z,44.10
2018-02-20T03:51:46.225Z,45.33
2018-02-20T03:54:15.953Z,43.58
2018-02-20T03:56:45.868Z,44.53
2018-02-20T03:59:15.963Z,43.17
2018-02-20T04:01:45.932Z,45.30
2018-02-20T04:04:17.045Z,56.13
2018-02-20T04:06:47.532Z,56.40
2018-02-20T04:09:19.057Z,48.30
2018-02-20T04:11:48.773Z,46.58
2018-02-20T04:14:18.506Z,66.80
2018-02-20T04:16:48.054Z,43.72
2018-02-20T04:19:18.530Z,52.30
2018-02-20T04:21:48.240Z,52.03
2018-02-20T04:24:17.562Z,42.28
2018-02-20T04:26:47.498Z,44.40
2018-02-20T04:29:16.539Z,53.92
2018-02-20T04:31:45.622Z,47.20
2018-02-20T04:34:14.723Z,45.03
2018-02-20T04:36:44.631Z,52.22
2018-02-20T04:39:13.647Z,48.45
2018-02-20T04:41:43.548Z,44.95
2018-02-20T04:44:12.580Z,44.22
2018-02-20T04:46:41.670Z,41.70
2018-02-20T04:49:10.783Z,44.72
2018-02-20T04:51:40.040Z,40.17
2018-02-20T04:54:09.573Z,40.65
2018-02-20T04:56:39.174Z,42.33
2018-02-20T04:59:11.151Z,44.70
2018-02-20T05:01:40.865Z,41.15
2018-02-20T05:04:10.286Z,40.88
2018-02-20T05:06:39.563Z,40.58
2018-02-20T05:09:08.838Z,39.35
2018-02-20T05:11:38.443Z,42.15
2018-02-20T05:14:08.006Z,39.40
2018-02-20T05:16:40.381Z,39.55
2018-02-20T05:19:14.841Z,39.67
2018-02-20T05:21:50.393Z,38.78
2018-02-20T05:24:22.060Z,39.75
2018-02-20T05:26:54.322Z,38.40
2018-02-20T05:29:24.215Z,39.45
2018-02-20T05:31:54.784Z,42.13
2018-02-20T05:34:24.562Z,35.25
2018-02-20T05:36:55.340Z,38.03
2018-02-20T05:39:26.094Z,41.03
2018-02-20T05:41:56.685Z,34.55
2018-02-20T05:44:26.606Z,34.63
2018-02-20T05:46:57.446Z,34.15
2018-02-20T05:49:26.747Z,35.03
2018-02-20T05:51:55.892Z,39.33
2018-02-20T05:54:25.795Z,40.78
2018-02-20T05:56:54.876Z,40.17
2018-02-20T05:59:24.051Z,34.83
2018-02-20T06:01:53.229Z,36.33
2018-02-20T06:04:22.765Z,37.38
2018-02-20T06:06:53.412Z,35.35
2018-02-20T06:09:23.730Z,34.38
2018-02-20T06:11:53.242Z,36.90
2018-02-20T06:14:23.246Z,36.65
2018-02-20T06:16:53.112Z,33.75
2018-02-20T06:19:22.682Z,36.45
2018-02-20T06:21:58.614Z,64.12
2018-02-20T06:24:27.686Z,61.00
2018-02-20T06:26:58.028Z,50.60
2018-02-20T06:29:37.681Z,47.42
2018-02-20T06:32:06.748Z,45.75
2018-02-20T06:34:36.116Z,35.50
2018-02-20T06:37:05.177Z,29.05
2018-02-20T06:39:34.532Z,29.83
2018-02-20T06:42:03.829Z,28.77
2018-02-20T06:44:34.981Z,32.70
2018-02-20T06:47:04.953Z,31.90
2018-02-20T06:49:34.065Z,38.67
2018-02-20T06:52:07.282Z,40.40
2018-02-20T06:54:44.474Z,38.40
2018-02-20T06:57:14.307Z,30.67
2018-02-20T07:04:36.359Z,31.50
2018-02-20T07:07:05.428Z,34.30
2018-02-20T07:09:34.448Z,34.50
2018-02-20T07:12:10.109Z,33.08
2018-02-20T07:14:39.237Z,37.22
2018-02-20T07:17:08.265Z,36.28
2018-02-20T07:19:38.068Z,39.30
2018-02-20T07:22:07.132Z,38.03
2018-02-20T07:24:41.968Z,35.92
2018-02-20T07:27:11.047Z,36.45
2018-02-20T07:29:40.099Z,40.90
2018-02-20T07:32:09.945Z,41.88
2018-02-20T07:34:39.048Z,40.63
2018-02-20T07:37:08.120Z,39.33
2018-02-20T07:39:37.143Z,36.28
2018-02-20T07:42:06.192Z,37.97
2018-02-20T07:44:35.978Z,35.42
2018-02-20T07:47:05.149Z,44.13
2018-02-20T07:49:34.182Z,35.58
2018-02-20T07:52:03.215Z,33.22
2018-02-20T07:54:32.277Z,33.22
2018-02-20T07:57:02.106Z,35.53
2018-02-20T07:59:31.148Z,35.40
2018-02-20T08:02:01.161Z,34.92
2018-02-20T08:04:30.170Z,35.92
2018-02-20T08:06:59.219Z,31.98
2018-02-20T08:09:28.282Z,38.05
2018-02-20T08:11:58.071Z,34.47
2018-02-20T08:14:27.117Z,39.60
2018-02-20T08:16:56.147Z,36.10
2018-02-20T08:19:25.198Z,51.47
2018-02-20T08:21:54.227Z,111.60
2018-02-20T08:24:23.281Z,179.68
2018-02-20T08:26:52.303Z,107.93
2018-02-20T08:29:21.356Z,43.20
2018-02-20T08:31:51.175Z,38.63
2018-02-20T08:34:20.197Z,39.47
2018-02-20T08:36:50.237Z,40.40
2018-02-20T08:39:19.266Z,39.08
2018-02-20T08:41:49.042Z,33.75
2018-02-20T08:44:18.124Z,37.33
2018-02-20T08:46:47.144Z,36.65
2018-02-20T08:49:16.163Z,37.95
2018-02-20T08:51:45.993Z,37.72
2018-02-20T08:54:15.041Z,32.97
2018-02-20T08:56:56.862Z,33.65
2018-02-20T08:59:26.663Z,33.00
2018-02-20T09:01:55.678Z,34.83
2018-02-20T09:04:24.733Z,34.85
2018-02-20T09:06:53.755Z,32.63
2018-02-20T09:09:27.928Z,34.30
2018-02-20T09:11:56.988Z,34.35
2018-02-20T09:14:26.008Z,37.13
2018-02-20T09:16:55.035Z,32.42
2018-02-20T09:19:24.090Z,28.67
2018-02-20T09:21:53.116Z,33.38
2018-02-20T09:24:22.167Z,32.08
2018-02-20T09:26:51.183Z,35.97
2018-02-20T09:29:20.232Z,31.77
2018-02-20T09:31:49.252Z,31.58
2018-02-20T09:34:18.304Z,32.97
2018-02-20T09:36:48.088Z,33.03
2018-02-20T09:39:17.151Z,28.55
2018-02-20T09:41:46.171Z,28.35
2018-02-20T09:44:15.324Z,28.50
2018-02-20T09:46:44.348Z,30.55
2018-02-20T09:49:13.361Z,27.60
2018-02-20T09:51:42.406Z,29.83
2018-02-20T09:54:11.464Z,30.35
2018-02-20T09:56:40.488Z,25.20
2018-02-20T09:59:09.665Z,30.10
2018-02-20T10:01:39.449Z,28.40
2018-02-20T10:04:08.458Z,28.65
2018-02-20T10:06:38.295Z,31.37
2018-02-20T10:09:07.314Z,29.60
2018-02-20T10:11:36.343Z,28.85
2018-02-20T10:14:05.511Z,28.02
2018-02-20T10:16:34.525Z,27.70
2018-02-20T10:19:03.557Z,25.77
2018-02-20T10:21:33.468Z,24.67
2018-02-20T10:24:03.247Z,26.65
2018-02-20T10:26:43.654Z,28.45
2018-02-20T10:29:12.681Z,28.85
2018-02-20T10:31:41.701Z,30.90
2018-02-20T10:34:10.752Z,30.15
2018-02-20T10:36:39.820Z,34.90
2018-02-20T10:39:09.620Z,30.10
2018-02-20T10:41:39.447Z,36.60
2018-02-20T10:44:08.458Z,36.13
2018-02-20T10:46:37.480Z,38.33
2018-02-20T10:49:06.619Z,29.37
2018-02-20T10:51:36.410Z,29.73
2018-02-20T10:54:06.362Z,28.42
2018-02-20T10:56:35.415Z,28.33
2018-02-20T10:59:04.448Z,29.27
2018-02-20T11:01:33.498Z,31.37
2018-02-20T11:04:02.515Z,31.05
2018-02-20T11:06:32.364Z,31.30
2018-02-20T11:09:01.374Z,28.27
2018-02-20T11:11:30.399Z,24.25
2018-02-20T11:13:59.469Z,30.95
2018-02-20T11:16:32.787Z,29.02
2018-02-20T11:19:01.819Z,29.87
2018-02-20T11:21:30.848Z,28.98
2018-02-20T11:23:59.887Z,30.83
2018-02-20T11:26:31.687Z,30.90
2018-02-20T11:29:00.699Z,31.33
2018-02-20T11:31:29.718Z,31.05
2018-02-20T11:33:58.779Z,28.12
2018-02-20T11:36:27.836Z,29.17
2018-02-20T11:38:56.855Z,33.53
2018-02-20T11:41:26.877Z,36.83
2018-02-20T11:43:55.905Z,39.55
2018-02-20T11:46:24.929Z,32.63
2018-02-20T11:48:54.768Z,36.35
2018-02-20T11:51:23.794Z,30.92
2018-02-20T11:53:52.819Z,28.15
2018-02-20T11:56:21.871Z,33.50
2018-02-20T11:58:50.914Z,31.62
2018-02-20T12:01:19.953Z,31.98
2018-02-20T12:03:49.021Z,28.73
2018-02-20T12:06:18.041Z,30.17
2018-02-20T12:08:47.116Z,30.40
2018-02-20T12:11:16.137Z,26.25
2018-02-20T12:13:45.793Z,27.98
2018-02-20T12:16:15.628Z,29.65
2018-02-20T12:18:44.646Z,27.98
2018-02-20T12:21:13.667Z,29.67
2018-02-20T12:23:42.791Z,28.05
2018-02-20T12:26:12.610Z,26.60
2018-02-20T12:28:41.645Z,29.33
2018-02-20T12:31:10.687Z,29.77
2018-02-20T12:33:40.825Z,28.25
2018-02-20T12:36:09.838Z,28.05
2018-02-20T12:38:38.846Z,29.75
2018-02-20T12:41:08.041Z,33.70
2018-02-20T12:43:37.873Z,33.80
2018-02-20T12:46:06.892Z,30.85
2018-02-20T12:48:36.727Z,29.83
2018-02-20T12:51:05.742Z,29.98
2018-02-20T12:53:34.815Z,34.17
2018-02-20T12:56:03.827Z,36.05
2018-02-20T12:58:32.851Z,36.05
2018-02-20T13:01:01.906Z,35.42
2018-02-20T13:03:30.931Z,33.35
2018-02-20T13:06:00.008Z,33.75
2018-02-20T13:08:29.026Z,37.28
2018-02-20T13:10:58.047Z,34.92
2018-02-20T13:13:27.883Z,39.05
2018-02-20T13:15:57.894Z,38.25
2018-02-20T13:18:27.378Z,40.65
2018-02-20T13:20:56.651Z,42.20
2018-02-20T13:23:30.187Z,35.30
2018-02-20T13:25:59.527Z,36.55
2018-02-20T13:28:29.096Z,37.15
2018-02-20T13:30:58.268Z,35.72
2018-02-20T13:33:27.951Z,36.78
2018-02-20T13:35:57.962Z,41.60
2018-02-20T13:38:27.064Z,37.28
2018-02-20T13:40:56.551Z,36.97
2018-02-20T13:43:26.192Z,38.72
2018-02-20T13:45:55.454Z,38.28
2018-02-20T13:48:25.008Z,37.92
2018-02-20T13:50:54.516Z,38.22
2018-02-20T13:53:24.124Z,41.63
2018-02-20T13:55:54.165Z,39.55
2018-02-20T13:58:23.913Z,40.80
2018-02-20T14:00:54.199Z,37.15
2018-02-20T14:03:23.655Z,42.08
2018-02-20T14:05:52.944Z,40.83
2018-02-20T14:08:23.151Z,38.88
2018-02-20T14:10:52.222Z,38.10
2018-02-20T14:13:21.245Z,43.55
2018-02-20T14:15:50.483Z,40.25
2018-02-20T14:18:19.499Z,39.95
2018-02-20T14:20:48.571Z,40.85
2018-02-20T14:23:17.590Z,38.83
2018-02-20T14:25:46.615Z,40.80
2018-02-20T14:28:16.524Z,43.28
2018-02-20T14:30:46.337Z,42.85
2018-02-20T14:33:16.179Z,42.28
2018-02-20T14:35:45.241Z,48.38
2018-02-20T14:38:14.267Z,41.00
2018-02-20T14:40:43.323Z,42.75
2018-02-20T14:43:12.342Z,48.28
2018-02-20T14:45:42.165Z,39.22
2018-02-20T14:48:11.194Z,39.60
2018-02-20T14:50:40.375Z,37.83
2018-02-20T14:53:09.388Z,39.50
2018-02-20T14:55:38.431Z,41.13
2018-02-20T14:58:08.268Z,41.05
2018-02-20T15:00:37.323Z,41.88
2018-02-20T15:03:06.339Z,41.85
2018-02-20T15:05:36.168Z,42.15
2018-02-20T15:08:05.197Z,44.13
2018-02-20T15:10:34.300Z,43.95
2018-02-20T15:13:03.606Z,38.22
2018-02-20T15:15:32.640Z,43.08
2018-02-20T15:18:01.697Z,45.08
2018-02-20T15:20:30.719Z,45.40
2018-02-20T15:22:59.774Z,40.88
2018-02-20T15:25:28.830Z,45.42
2018-02-20T15:27:57.863Z,43.42
2018-02-20T15:30:27.230Z,42.50
2018-02-20T15:32:56.255Z,44.20
2018-02-20T15:35:25.281Z,45.03
2018-02-20T15:37:55.096Z,44.35
2018-02-20T15:40:24.890Z,47.62
2018-02-20T15:42:53.983Z,46.40
2018-02-20T15:45:23.004Z,43.90
2018-02-20T15:47:52.784Z,45.65
2018-02-20T15:50:21.836Z,49.90
2018-02-20T15:52:50.861Z,45.63
2018-02-20T15:55:19.918Z,45.00
2018-02-20T15:57:48.960Z,45.35
2018-02-20T16:00:18.011Z,42.17
2018-02-20T16:02:47.026Z,39.55
2018-02-20T16:05:16.084Z,44.63
2018-02-20T16:07:45.106Z,41.28
2018-02-20T16:10:14.183Z,39.25
2018-02-20T16:12:43.206Z,46.42
2018-02-20T16:15:12.236Z,40.20
2018-02-20T16:17:42.067Z,48.10
2018-02-20T16:20:11.167Z,39.78
2018-02-20T16:22:40.182Z,44.28
2018-02-20T16:25:09.265Z,39.97
2018-02-20T16:27:38.287Z,39.58
2018-02-20T16:30:07.364Z,41.08
2018-02-20T16:32:36.424Z,42.15
2018-02-20T16:35:06.203Z,43.83
2018-02-20T16:37:35.251Z,43.45
2018-02-20T16:40:04.269Z,41.88
2018-02-20T16:42:33.367Z,40.30
2018-02-20T16:45:02.393Z,44.47
2018-02-20T16:47:31.417Z,43.50
2018-02-20T16:50:09.139Z,42.65
2018-02-20T16:52:38.474Z,47.28
2018-02-20T16:55:07.705Z,47.60
2018-02-20T16:57:37.509Z,48.72
2018-02-20T17:00:09.336Z,47.58
2018-02-20T17:02:38.363Z,50.20
2018-02-20T17:05:08.502Z,44.95
2018-02-20T17:07:37.682Z,45.00
2018-02-20T17:10:10.466Z,47.55
2018-02-20T17:12:40.607Z,49.30
2018-02-20T17:15:10.772Z,48.10
2018-02-20T17:17:39.810Z,49.60
2018-02-20T17:20:08.849Z,51.08
2018-02-20T17:22:38.408Z,51.40
2018-02-20T17:25:07.616Z,50.72
2018-02-20T17:27:37.420Z,52.53
2018-02-20T17:30:06.813Z,51.50
2018-02-20T17:32:35.850Z,55.55
2018-02-20T17:35:04.948Z,53.30
2018-02-20T17:37:34.059Z,56.67
2018-02-20T17:40:03.316Z,48.55
2018-02-20T17:42:33.106Z,52.08
2018-02-20T17:45:02.191Z,58.50
2018-02-20T17:47:31.219Z,57.25
2018-02-20T17:50:00.279Z,53.35
2018-02-20T17:52:29.356Z,57.58
2018-02-20T17:54:58.411Z,55.55
2018-02-20T17:57:27.439Z,58.10
2018-02-20T17:59:57.468Z,62.83
2018-02-20T18:02:26.659Z,53.30
2018-02-20T18:04:55.728Z,54.15
2018-02-20T18:07:25.508Z,57.80
2018-02-20T18:10:01.051Z,54.65
2018-02-20T18:12:30.072Z,56.10
2018-02-20T18:14:59.859Z,55.95
2018-02-20T18:17:29.708Z,55.53
2018-02-20T18:19:58.772Z,53.87
2018-02-20T18:22:30.291Z,56.90
2018-02-20T18:24:59.795Z,53.55
2018-02-20T18:27:28.824Z,58.83
2018-02-20T18:29:58.806Z,56.28
2018-02-20T18:32:27.826Z,54.78
2018-02-20T18:34:56.893Z,54.22
2018-02-20T18:37:25.915Z,55.38
2018-02-20T18:39:55.688Z,52.97
2018-02-20T18:42:24.823Z,54.42
2018-02-20T18:44:53.915Z,56.97
2018-02-20T18:47:22.996Z,58.20
2018-02-20T18:49:52.011Z,56.97
2018-02-20T18:52:28.650Z,63.72
2018-02-20T18:54:58.484Z,64.68
2018-02-20T18:57:28.501Z,64.60
2018-02-20T18:59:57.558Z,68.18
2018-02-20T19:02:26.576Z,60.15
2018-02-20T19:04:56.398Z,63.83
2018-02-20T19:07:25.417Z,67.15
2018-02-20T19:09:54.475Z,61.17
2018-02-20T19:12:30.723Z,60.40
2018-02-20T19:14:59.776Z,65.10
2018-02-20T19:17:28.795Z,62.58
2018-02-20T19:20:07.948Z,62.55
2018-02-20T19:22:37.735Z,57.97
2018-02-20T19:25:06.792Z,56.70
2018-02-20T19:27:35.818Z,62.30
2018-02-20T19:30:04.878Z,61.25
2018-02-20T19:32:33.902Z,60.65
2018-02-20T19:35:02.963Z,55.88
2018-02-20T19:37:32.966Z,62.78
2018-02-20T19:40:02.062Z,57.88
2018-02-20T19:42:31.066Z,56.65
2018-02-20T19:45:00.168Z,52.15
2018-02-20T19:47:29.197Z,55.83
2018-02-20T19:49:58.228Z,56.45
2018-02-20T19:52:28.046Z,60.28
2018-02-20T19:54:57.936Z,60.28
2018-02-20T19:57:26.969Z,56.40
2018-02-20T19:59:57.057Z,58.58
2018-02-20T20:02:26.084Z,53.40
2018-02-20T20:04:55.124Z,55.38
2018-02-20T20:07:24.214Z,50.85
2018-02-20T20:09:53.259Z,54.65
2018-02-20T20:12:23.078Z,51.22
2018-02-20T20:14:52.112Z,51.90
2018-02-20T20:17:22.175Z,53.17
2018-02-20T20:19:52.042Z,51.37
2018-02-20T20:22:21.064Z,54.05
2018-02-20T20:24:50.388Z,53.17
2018-02-20T20:27:20.334Z,53.45
2018-02-20T20:29:49.373Z,48.42
2018-02-20T20:32:18.472Z,49.03
2018-02-20T20:34:47.508Z,52.65
2018-02-20T20:37:17.350Z,52.13
2018-02-20T20:39:46.407Z,53.58
2018-02-20T20:42:15.499Z,50.55
2018-02-20T20:44:45.296Z,51.13
2018-02-20T20:47:14.385Z,51.88
2018-02-20T20:49:43.482Z,48.97
2018-02-20T20:52:12.472Z,53.08
2018-02-20T20:54:43.037Z,52.22
2018-02-20T20:57:12.116Z,56.45
2018-02-20T20:59:43.089Z,49.90
2018-02-20T21:02:12.151Z,49.40
2018-02-20T21:04:41.176Z,48.42
2018-02-20T21:07:10.272Z,49.58
2018-02-20T21:09:39.311Z,48.40
2018-02-20T21:12:08.352Z,49.53
2018-02-20T21:14:38.173Z,48.08
2018-02-20T21:17:07.199Z,48.40
2018-02-20T21:19:36.221Z,46.17
2018-02-20T21:22:05.293Z,46.90
2018-02-20T21:24:34.310Z,43.72
2018-02-20T21:27:03.363Z,42.85
2018-02-20T21:29:38.064Z,43.10
2018-02-20T21:32:07.888Z,42.62
2018-02-20T21:34:36.915Z,45.63
2018-02-20T21:37:06.266Z,47.50
2018-02-20T21:39:39.879Z,42.15
2018-02-20T21:42:08.970Z,45.03
2018-02-20T21:44:24.364Z,57.03
2018-02-20T21:44:38.012Z,43.70
2018-02-20T21:46:54.068Z,64.23
2018-02-20T21:47:07.036Z,47.10
2018-02-20T21:49:36.210Z,44.92
2018-02-20T21:52:05.224Z,44.05
2018-02-20T21:52:16.889Z,57.80
2018-02-20T21:54:34.253Z,42.00
2018-02-20T21:54:48.471Z,57.87
2018-02-20T21:57:04.098Z,42.70
2018-02-20T21:57:19.322Z,59.93
2018-02-20T21:59:34.277Z,46.30
2018-02-20T21:59:51.030Z,59.77
2018-02-20T22:02:05.714Z,45.17
2018-02-20T22:02:22.429Z,59.90
2018-02-20T22:04:51.881Z,44.05
2018-02-20T22:04:53.525Z,58.70
2018-02-20T22:07:24.829Z,58.27
2018-02-20T22:09:57.169Z,62.30
2018-02-20T22:12:29.085Z,58.30
2018-02-20T22:14:59.973Z,59.80
2018-02-20T22:17:38.401Z,59.97
2018-02-20T22:20:10.081Z,63.33
2018-02-20T22:22:09.546Z,41.70
2018-02-20T22:22:41.254Z,56.80
2018-02-20T22:25:12.717Z,58.90
2018-02-20T22:27:43.875Z,61.10
2018-02-20T22:28:16.838Z,44.85
2018-02-20T22:30:15.561Z,56.77
2018-02-20T22:30:50.353Z,45.05
2018-02-20T22:32:47.140Z,60.13
2018-02-20T22:33:20.426Z,46.42
2018-02-20T22:35:18.342Z,57.30
2018-02-20T22:35:51.043Z,47.50
2018-02-20T22:37:49.198Z,60.00
2018-02-20T22:38:20.577Z,52.13
2018-02-20T22:40:20.992Z,59.27
2018-02-20T22:40:50.200Z,44.38
2018-02-20T22:42:52.329Z,69.77
2018-02-20T22:43:21.263Z,42.40
2018-02-20T22:45:23.118Z,58.33
2018-02-20T22:45:52.044Z,42.17
2018-02-20T22:47:57.148Z,63.50
2018-02-20T22:48:22.044Z,45.60
2018-02-20T22:50:29.201Z,57.03
2018-02-20T22:50:52.573Z,45.17
2018-02-20T22:53:00.077Z,62.00
2018-02-20T22:53:22.448Z,44.67
2018-02-20T22:55:30.905Z,60.73
2018-02-20T22:55:52.985Z,51.95
2018-02-20T22:58:01.801Z,61.80
2018-02-20T22:58:22.859Z,45.92
2018-02-20T23:00:33.493Z,59.13
2018-02-20T23:00:52.827Z,45.92
2018-02-20T23:03:04.761Z,59.93
2018-02-20T23:03:23.199Z,48.17
2018-02-20T23:05:37.034Z,56.30
2018-02-20T23:05:54.040Z,53.35
2018-02-20T23:08:08.941Z,54.83
2018-02-20T23:08:26.891Z,47.50
2018-02-20T23:10:40.477Z,59.97
2018-02-20T23:11:00.990Z,50.17
2018-02-20T23:13:11.325Z,58.40
2018-02-20T23:13:32.741Z,46.90
2018-02-20T23:15:42.580Z,53.57
2018-02-20T23:16:02.590Z,47.85
2018-02-20T23:18:14.329Z,55.17
2018-02-20T23:18:32.340Z,48.65
2018-02-20T23:20:45.554Z,52.67
2018-02-20T23:21:02.502Z,50.05
2018-02-20T23:23:16.447Z,48.73
2018-02-20T23:23:32.745Z,51.83
2018-02-20T23:25:47.999Z,48.47
2018-02-20T23:26:03.228Z,45.75
2018-02-20T23:28:19.941Z,47.53
2018-02-20T23:28:33.255Z,51.78
2018-02-20T23:30:51.607Z,47.00
2018-02-20T23:31:03.239Z,47.55
2018-02-20T23:33:22.801Z,45.70
2018-02-20T23:33:34.001Z,45.97
2018-02-20T23:35:53.840Z,46.97
2018-02-20T23:36:03.977Z,49.20
2018-02-20T23:38:25.386Z,45.73
2018-02-20T23:38:35.429Z,50.35
2018-02-20T23:40:56.257Z,44.50
2018-02-20T23:41:09.321Z,42.95
2018-02-20T23:43:27.109Z,46.37
2018-02-20T23:43:38.572Z,42.10
2018-02-20T23:45:58.824Z,42.73
2018-02-20T23:46:08.839Z,43.65
2018-02-20T23:48:29.701Z,43.80
2018-02-20T23:48:41.398Z,44.33
2018-02-20T23:51:04.307Z,41.30
2018-02-20T23:51:17.488Z,43.53
2018-02-20T23:53:35.421Z,45.97
2018-02-20T23:53:48.839Z,41.37
2018-02-20T23:56:06.252Z,43.37
2018-02-20T23:56:19.143Z,38.40
2018-02-20T23:58:37.068Z,43.13
2018-02-20T23:58:49.284Z,43.00
